createdAt,value
2022-08-17T00:01:52.695Z,22.20
2022-08-17T00:04:21.773Z,20.30
2022-08-17T00:06:53.298Z,23.20
2022-08-17T00:09:21.391Z,23.90
2022-08-17T00:12:41.652Z,23.10
2022-08-17T00:14:38.520Z,21.40
2022-08-17T00:17:06.774Z,22.80
2022-08-17T00:22:33.077Z,22.80
2022-08-17T00:27:23.602Z,20.90
2022-08-17T00:29:52.145Z,22.00
2022-08-17T00:33:10.812Z,21.00
2022-08-17T00:35:11.363Z,22.00
2022-08-17T00:37:41.062Z,21.10
2022-08-17T00:40:11.257Z,23.40
2022-08-17T00:42:39.547Z,26.70
2022-08-17T00:45:10.427Z,21.90
2022-08-17T00:47:40.904Z,21.20
2022-08-17T00:50:12.897Z,20.80
2022-08-17T00:52:46.900Z,21.60
2022-08-17T00:55:15.583Z,21.90
2022-08-17T00:57:48.941Z,21.00
2022-08-17T01:00:26.710Z,21.70
2022-08-17T01:02:58.521Z,22.30
2022-08-17T01:05:30.588Z,21.60
2022-08-17T01:08:01.194Z,22.80
2022-08-17T01:11:00.335Z,20.40
2022-08-17T01:13:27.208Z,22.40
2022-08-17T01:16:01.567Z,20.70
2022-08-17T01:18:29.803Z,22.10
2022-08-17T01:21:03.139Z,20.30
2022-08-17T01:23:32.775Z,22.20
2022-08-17T01:26:02.871Z,22.20
2022-08-17T01:28:55.058Z,22.20
2022-08-17T01:31:24.383Z,19.80
2022-08-17T01:33:55.556Z,21.50
2022-08-17T01:38:53.487Z,22.00
2022-08-17T01:41:23.151Z,21.60
2022-08-17T01:43:56.156Z,20.30
2022-08-17T01:46:28.022Z,23.50
2022-08-17T01:49:03.885Z,22.00
2022-08-17T01:51:35.167Z,22.00
2022-08-17T01:54:27.778Z,21.20
2022-08-17T02:01:53.419Z,21.60
2022-08-17T02:04:21.575Z,21.80
2022-08-17T02:06:53.408Z,20.50
2022-08-17T02:09:26.059Z,19.00
2022-08-17T02:11:58.944Z,21.50
2022-08-17T02:14:27.600Z,21.00
2022-08-17T02:16:56.173Z,21.10
2022-08-17T02:19:24.405Z,21.50
2022-08-17T02:21:54.832Z,21.80
2022-08-17T02:25:00.160Z,21.80
2022-08-17T02:27:14.859Z,20.00
2022-08-17T02:32:25.449Z,21.80
2022-08-17T02:41:22.644Z,23.40
2022-08-17T02:45:20.348Z,19.30
2022-08-17T02:57:08.194Z,21.70
2022-08-17T02:59:52.705Z,21.70
2022-08-17T03:07:17.837Z,25.40
2022-08-17T03:09:45.932Z,20.00
2022-08-17T03:12:15.801Z,19.40
2022-08-17T03:14:44.889Z,21.50
2022-08-17T03:17:17.439Z,21.80
2022-08-17T03:22:36.277Z,21.50
2022-08-17T03:27:33.360Z,21.40
2022-08-17T03:30:01.563Z,25.50
2022-08-17T03:32:29.540Z,20.40
2022-08-17T03:35:00.837Z,19.90
2022-08-17T03:37:28.906Z,21.40
2022-08-17T03:39:57.094Z,19.60
2022-08-17T03:42:32.095Z,20.70
2022-08-17T03:45:03.467Z,20.80
2022-08-17T03:50:36.086Z,21.10
2022-08-17T03:53:24.565Z,20.20
2022-08-17T03:56:10.059Z,19.70
2022-08-17T03:58:38.237Z,21.10
2022-08-17T04:01:08.398Z,20.50
2022-08-17T04:03:36.547Z,20.10
2022-08-17T04:06:05.600Z,21.30
2022-08-17T04:08:33.815Z,19.40
2022-08-17T04:11:02.323Z,25.40
2022-08-17T04:13:30.417Z,21.40
2022-08-17T04:18:29.998Z,19.90
2022-08-17T04:28:35.113Z,20.10
2022-08-17T04:33:40.289Z,21.90
2022-08-17T04:36:09.482Z,19.60
2022-08-17T04:38:39.198Z,25.50
2022-08-17T04:41:27.073Z,21.20
2022-08-17T04:43:58.360Z,21.00
2022-08-17T04:46:36.004Z,21.00
2022-08-17T04:49:08.768Z,21.00
2022-08-17T04:51:39.491Z,21.00
2022-08-17T04:54:16.306Z,19.50
2022-08-17T04:56:45.139Z,25.20
2022-08-17T04:59:16.512Z,20.80
2022-08-17T05:01:46.872Z,24.10
2022-08-17T05:04:33.257Z,19.00
2022-08-17T05:07:04.537Z,21.30
2022-08-17T05:09:34.094Z,18.60
2022-08-17T05:12:03.715Z,20.90
2022-08-17T05:14:39.368Z,20.70
2022-08-17T05:17:11.294Z,19.60
2022-08-17T05:19:41.227Z,20.80
2022-08-17T05:24:43.309Z,20.80
2022-08-17T05:27:19.140Z,20.90
2022-08-17T05:29:47.425Z,20.20
2022-08-17T05:35:06.795Z,19.30
2022-08-17T05:37:34.836Z,21.00
2022-08-17T05:42:31.680Z,20.40
2022-08-17T05:44:59.826Z,19.30
2022-08-17T05:47:28.284Z,20.60
2022-08-17T05:52:36.098Z,24.70
2022-08-17T05:55:15.375Z,19.80
2022-08-17T05:57:57.403Z,20.60
2022-08-17T06:00:30.738Z,21.10
2022-08-17T06:03:19.649Z,19.30
2022-08-17T06:06:10.126Z,21.10
2022-08-17T06:08:51.505Z,23.20
2022-08-17T06:11:27.334Z,21.10
2022-08-17T06:14:34.863Z,21.10
2022-08-17T06:17:07.109Z,20.20
2022-08-17T06:19:40.649Z,20.10
2022-08-17T06:22:11.840Z,21.30
2022-08-17T06:24:44.879Z,25.80
2022-08-17T06:27:19.828Z,20.30
2022-08-17T06:29:55.847Z,22.50
2022-08-17T06:34:53.974Z,25.90
2022-08-17T06:37:42.128Z,19.40
2022-08-17T06:40:22.245Z,19.90
2022-08-17T06:43:06.758Z,21.50
2022-08-17T06:45:38.891Z,21.50
2022-08-17T06:48:16.283Z,20.20
2022-08-17T06:50:50.651Z,19.90
2022-08-17T06:53:24.419Z,20.10
2022-08-17T06:55:59.999Z,19.80
2022-08-17T06:58:31.322Z,21.00
2022-08-17T07:01:05.226Z,19.30
2022-08-17T07:03:38.077Z,21.60
2022-08-17T07:06:12.199Z,21.60
2022-08-17T07:08:52.158Z,21.20
2022-08-17T07:11:28.276Z,20.90
2022-08-17T07:14:07.765Z,20.80
2022-08-17T07:16:42.115Z,20.20
2022-08-17T07:19:11.192Z,20.10
2022-08-17T07:21:48.864Z,21.70
2022-08-17T07:24:30.827Z,21.70
2022-08-17T07:27:13.641Z,20.50
2022-08-17T07:29:46.399Z,19.70
2022-08-17T07:32:17.899Z,20.80
2022-08-17T07:35:15.654Z,21.00
2022-08-17T07:37:46.361Z,21.90
2022-08-17T07:40:20.668Z,20.10
2022-08-17T07:43:21.863Z,21.40
2022-08-17T07:46:22.473Z,20.70
2022-08-17T07:48:53.727Z,21.40
2022-08-17T07:51:28.982Z,22.10
2022-08-17T07:54:13.890Z,22.20
2022-08-17T07:56:46.862Z,22.20
2022-08-17T07:59:23.585Z,22.20
2022-08-17T08:02:06.207Z,22.20
2022-08-17T08:07:31.889Z,22.40
2022-08-17T08:10:09.865Z,20.60
2022-08-17T08:12:40.568Z,21.30
2022-08-17T08:15:18.735Z,26.90
2022-08-17T08:17:52.191Z,22.70
2022-08-17T08:20:47.754Z,21.70
2022-08-17T08:23:21.139Z,22.90
2022-08-17T08:26:02.815Z,22.90
2022-08-17T08:28:39.569Z,21.30
2022-08-17T08:31:19.347Z,22.40
2022-08-17T08:33:57.576Z,22.20
2022-08-17T08:37:16.096Z,22.90
2022-08-17T08:39:36.491Z,23.70
2022-08-17T08:42:14.056Z,27.70
2022-08-17T08:45:00.503Z,24.20
2022-08-17T08:47:50.737Z,22.50
2022-08-17T08:50:37.259Z,22.80
2022-08-17T08:53:23.625Z,25.20
2022-08-17T08:55:56.799Z,24.90
2022-08-17T08:58:42.119Z,24.50
2022-08-17T09:01:19.296Z,25.10
2022-08-17T09:04:25.046Z,26.00
2022-08-17T09:07:07.495Z,25.50
2022-08-17T09:09:43.638Z,25.70
2022-08-17T09:12:16.819Z,25.20
2022-08-17T09:14:51.438Z,28.90
2022-08-17T09:17:27.166Z,26.80
2022-08-17T09:20:00.965Z,24.80
2022-08-17T09:22:34.998Z,26.90
2022-08-17T09:25:09.005Z,27.10
2022-08-17T09:27:49.411Z,31.40
2022-08-17T09:30:18.384Z,26.70
2022-08-17T09:32:55.148Z,25.60
2022-08-17T09:35:34.872Z,28.10
2022-08-17T09:38:18.501Z,26.00
2022-08-17T09:40:52.561Z,27.80
2022-08-17T09:43:30.639Z,27.40
2022-08-17T09:46:02.982Z,28.00
2022-08-17T09:48:36.801Z,27.80
2022-08-17T09:51:07.865Z,26.80
2022-08-17T09:53:39.909Z,30.20
2022-08-17T09:56:29.103Z,28.10
2022-08-17T09:59:17.308Z,29.30
2022-08-17T10:01:59.557Z,26.40
2022-08-17T10:04:42.861Z,26.20
2022-08-17T10:07:19.295Z,27.80
2022-08-17T10:09:58.453Z,29.20
2022-08-17T10:12:37.206Z,31.10
2022-08-17T10:15:18.801Z,28.40
2022-08-17T10:18:04.190Z,25.70
2022-08-17T10:20:39.843Z,29.50
2022-08-17T10:23:32.369Z,29.00
2022-08-17T10:26:14.337Z,27.70
2022-08-17T10:28:49.214Z,28.00
2022-08-17T10:31:40.764Z,26.60
2022-08-17T10:34:47.471Z,28.90
2022-08-17T10:37:43.033Z,29.70
2022-08-17T10:40:36.486Z,27.80
2022-08-17T10:43:22.962Z,27.50
2022-08-17T10:46:27.921Z,28.90
2022-08-17T10:49:15.590Z,27.10
2022-08-17T10:51:45.946Z,27.20
2022-08-17T10:54:36.885Z,32.40
2022-08-17T10:57:35.172Z,28.30
2022-08-17T11:00:14.841Z,28.80
2022-08-17T11:02:49.353Z,27.20
2022-08-17T11:05:46.141Z,27.40
2022-08-17T11:08:48.585Z,29.80
2022-08-17T11:11:43.060Z,28.50
2022-08-17T11:14:36.967Z,28.60
2022-08-17T11:17:25.287Z,28.10
2022-08-17T11:20:31.004Z,28.90
2022-08-17T11:23:30.943Z,27.50
2022-08-17T11:26:04.021Z,31.80
2022-08-17T11:28:46.406Z,29.40
2022-08-17T11:31:37.867Z,29.40
2022-08-17T11:34:15.126Z,29.10
2022-08-17T11:37:21.888Z,29.50
2022-08-17T11:40:26.296Z,29.90
2022-08-17T11:43:15.388Z,28.80
2022-08-17T11:46:07.386Z,29.00
2022-08-17T11:49:05.147Z,29.80
2022-08-17T11:52:08.452Z,29.80
2022-08-17T11:54:46.548Z,30.60
2022-08-17T11:57:47.448Z,28.60
2022-08-17T12:01:01.178Z,29.90
2022-08-17T12:03:54.260Z,30.90
2022-08-17T12:06:34.263Z,30.90
2022-08-17T12:09:19.281Z,29.70
2022-08-17T12:11:58.665Z,30.90
2022-08-17T12:20:24.274Z,31.00
2022-08-17T12:23:01.704Z,31.30
2022-08-17T12:25:38.581Z,32.10
2022-08-17T12:28:20.274Z,31.60
2022-08-17T12:30:51.964Z,29.40
2022-08-17T12:33:25.221Z,31.80
2022-08-17T12:36:03.102Z,31.00
2022-08-17T12:39:21.348Z,31.90
2022-08-17T12:42:01.971Z,31.90
2022-08-17T12:44:46.126Z,30.80
2022-08-17T12:47:22.852Z,30.80
2022-08-17T12:49:52.888Z,31.60
2022-08-17T12:52:25.030Z,29.70
2022-08-17T12:54:57.036Z,31.10
2022-08-17T12:57:33.294Z,29.40
2022-08-17T13:00:10.792Z,28.50
2022-08-17T13:02:47.195Z,30.40
2022-08-17T13:05:24.015Z,29.80
2022-08-17T13:07:56.656Z,28.60
2022-08-17T13:10:32.791Z,28.60
2022-08-17T13:13:05.866Z,29.80
2022-08-17T13:15:38.349Z,28.60
2022-08-17T13:18:36.620Z,28.80
2022-08-17T13:21:05.495Z,29.80
2022-08-17T13:23:34.270Z,29.20
2022-08-17T13:26:07.670Z,29.50
2022-08-17T13:28:40.668Z,29.70
2022-08-17T13:31:51.864Z,29.70
2022-08-17T13:34:34.741Z,29.70
2022-08-17T13:37:37.369Z,28.60
2022-08-17T13:40:28.107Z,29.70
2022-08-17T13:42:59.741Z,28.70
2022-08-17T13:45:50.394Z,28.80
2022-08-17T13:48:40.347Z,29.80
2022-08-17T13:51:27.370Z,29.40
2022-08-17T13:54:21.570Z,33.10
2022-08-17T13:57:08.195Z,28.20
2022-08-17T13:59:53.015Z,28.20
2022-08-17T14:02:28.559Z,29.70
2022-08-17T14:04:57.367Z,29.30
2022-08-17T14:07:35.795Z,29.60
2022-08-17T14:10:08.580Z,28.70
2022-08-17T14:12:41.139Z,32.10
2022-08-17T14:15:10.662Z,28.40
2022-08-17T14:17:40.098Z,27.70
2022-08-17T14:20:10.539Z,29.40
2022-08-17T14:22:42.211Z,29.30
2022-08-17T14:25:12.217Z,27.80
2022-08-17T14:27:43.259Z,29.10
2022-08-17T14:30:25.998Z,29.10
2022-08-17T14:32:58.063Z,27.50
2022-08-17T14:35:27.883Z,29.00
2022-08-17T14:37:56.379Z,28.10
2022-08-17T14:40:25.498Z,28.90
2022-08-17T14:42:55.245Z,28.20
2022-08-17T14:45:29.938Z,27.80
2022-08-17T14:48:05.750Z,28.80
2022-08-17T14:50:35.709Z,28.80
2022-08-17T14:53:05.216Z,27.80
2022-08-17T14:55:33.471Z,27.50
2022-08-17T14:58:02.038Z,27.90
2022-08-17T15:00:30.112Z,28.80
2022-08-17T15:03:00.957Z,30.40
2022-08-17T15:05:34.040Z,28.80
2022-08-17T15:08:03.452Z,27.30
2022-08-17T15:10:31.989Z,28.70
2022-08-17T15:13:00.600Z,27.70
2022-08-17T15:15:29.329Z,28.70
2022-08-17T15:17:58.158Z,28.70
2022-08-17T15:20:29.827Z,28.40
2022-08-17T15:22:59.905Z,28.50
2022-08-17T15:25:29.760Z,27.30
2022-08-17T15:30:27.210Z,28.70
2022-08-17T15:32:57.328Z,32.30
2022-08-17T15:35:28.970Z,27.50
2022-08-17T15:38:04.573Z,28.60
2022-08-17T15:40:36.568Z,28.70
2022-08-17T15:43:06.515Z,28.20
2022-08-17T15:45:35.244Z,28.60
2022-08-17T15:48:03.492Z,28.60
2022-08-17T15:50:31.627Z,28.60
2022-08-17T15:53:02.169Z,28.60
2022-08-17T15:55:31.740Z,27.70
2022-08-17T15:58:00.383Z,29.10
2022-08-17T16:00:29.450Z,27.80
2022-08-17T16:03:47.067Z,28.50
2022-08-17T16:05:48.114Z,27.20
2022-08-17T16:08:21.122Z,27.50
2022-08-17T16:10:50.104Z,27.40
2022-08-17T16:13:19.306Z,27.20
2022-08-17T16:15:57.019Z,27.70
2022-08-17T16:18:30.783Z,28.30
2022-08-17T16:21:19.561Z,27.00
2022-08-17T16:23:51.430Z,30.70
2022-08-17T16:26:20.203Z,27.20
2022-08-17T16:28:48.358Z,28.20
2022-08-17T16:31:16.639Z,28.00
2022-08-17T16:34:15.548Z,26.10
2022-08-17T16:36:33.372Z,26.90
2022-08-17T16:39:02.991Z,27.10
2022-08-17T16:41:46.949Z,27.50
2022-08-17T16:44:17.085Z,28.20
2022-08-17T16:46:46.226Z,27.10
2022-08-17T16:49:35.262Z,28.00
2022-08-17T16:52:04.340Z,27.80
2022-08-17T16:54:36.939Z,26.40
2022-08-17T16:57:05.589Z,25.80
2022-08-17T16:59:40.883Z,27.70
2022-08-17T17:02:14.553Z,28.10
2022-08-17T17:04:50.519Z,28.10
2022-08-17T17:07:52.010Z,32.00
2022-08-17T17:10:24.987Z,26.70
2022-08-17T17:13:01.629Z,28.10
2022-08-17T17:15:43.748Z,26.90
2022-08-17T17:18:14.806Z,29.60
2022-08-17T17:20:49.855Z,28.30
2022-08-17T17:23:34.980Z,28.10
2022-08-17T17:26:17.050Z,25.70
2022-08-17T17:28:55.707Z,26.50
2022-08-17T17:31:28.443Z,27.50
2022-08-17T17:34:00.558Z,27.90
2022-08-17T17:36:34.832Z,26.50
2022-08-17T17:39:14.609Z,28.10
2022-08-17T17:41:50.049Z,27.00
2022-08-17T17:44:22.670Z,26.80
2022-08-17T17:46:55.389Z,28.20
2022-08-17T17:49:23.930Z,26.40
2022-08-17T17:52:09.909Z,27.90
2022-08-17T17:54:52.319Z,26.30
2022-08-17T17:57:30.606Z,26.30
2022-08-17T18:00:07.978Z,27.90
2022-08-17T18:02:52.634Z,26.10
2022-08-17T18:06:01.251Z,27.90
2022-08-17T18:08:47.667Z,27.10
2022-08-17T18:11:43.669Z,26.60
2022-08-17T18:14:27.035Z,27.70
2022-08-17T18:16:57.082Z,25.80
2022-08-17T18:19:28.089Z,27.40
2022-08-17T18:22:02.601Z,26.80
2022-08-17T18:24:32.721Z,27.20
2022-08-17T18:27:02.925Z,26.70
2022-08-17T18:29:44.185Z,26.60
2022-08-17T18:32:23.285Z,25.80
2022-08-17T18:34:53.973Z,27.50
2022-08-17T18:37:37.429Z,26.40
2022-08-17T18:40:35.379Z,26.50
2022-08-17T18:43:08.379Z,25.10
2022-08-17T18:45:45.512Z,27.50
2022-08-17T18:48:30.764Z,27.10
2022-08-17T18:51:06.294Z,26.30
2022-08-17T18:53:38.482Z,27.10
2022-08-17T18:56:26.279Z,25.70
2022-08-17T18:59:03.614Z,31.10
2022-08-17T19:01:52.705Z,27.30
2022-08-17T19:04:36.612Z,25.60
2022-08-17T19:07:08.377Z,25.70
2022-08-17T19:09:41.338Z,27.30
2022-08-17T19:12:14.284Z,25.60
2022-08-17T19:14:43.605Z,27.30
2022-08-17T19:17:22.562Z,27.30
2022-08-17T19:19:56.374Z,26.90
2022-08-17T19:22:30.737Z,27.30
2022-08-17T19:25:10.307Z,27.30
2022-08-17T19:27:57.744Z,27.20
2022-08-17T19:30:27.901Z,26.50
2022-08-17T19:32:59.517Z,25.60
2022-08-17T19:35:36.870Z,26.40
2022-08-17T19:38:13.269Z,27.30
2022-08-17T19:40:54.051Z,27.30
2022-08-17T19:43:39.326Z,27.30
2022-08-17T19:46:16.550Z,25.90
2022-08-17T19:48:55.096Z,27.20
2022-08-17T19:51:31.614Z,26.00
2022-08-17T19:54:09.127Z,26.80
2022-08-17T19:56:45.474Z,26.10
2022-08-17T19:59:23.021Z,24.80
2022-08-17T20:01:54.501Z,27.00
2022-08-17T20:04:41.096Z,26.00
2022-08-17T20:07:15.767Z,25.30
2022-08-17T20:09:55.205Z,26.20
2022-08-17T20:12:31.537Z,27.00
2022-08-17T20:15:05.255Z,30.40
2022-08-17T20:17:38.342Z,27.00
2022-08-17T20:20:24.119Z,27.30
2022-08-17T20:23:04.532Z,27.30
2022-08-17T20:25:39.298Z,27.30
2022-08-17T20:28:23.694Z,27.40
2022-08-17T20:33:37.423Z,27.20
2022-08-17T20:36:22.980Z,27.20
2022-08-17T20:39:16.746Z,27.20
2022-08-17T20:42:06.932Z,27.40
2022-08-17T20:44:37.372Z,27.20
2022-08-17T20:47:11.350Z,27.20
2022-08-17T20:50:08.665Z,27.20
2022-08-17T20:57:38.664Z,27.10
2022-08-17T21:01:03.500Z,27.10
2022-08-17T21:04:25.020Z,27.00
2022-08-17T21:07:42.627Z,27.10
2022-08-17T21:15:19.918Z,26.80
2022-08-17T21:18:48.826Z,26.70
2022-08-17T21:22:14.660Z,25.10
2022-08-17T21:25:06.600Z,26.20
2022-08-17T21:28:10.669Z,26.00
2022-08-17T21:31:34.730Z,25.80
2022-08-17T21:34:59.403Z,25.50
2022-08-17T21:37:43.575Z,25.20
2022-08-17T21:40:58.177Z,25.10
2022-08-17T21:44:47.415Z,24.90
2022-08-17T21:47:40.950Z,24.60
2022-08-17T21:50:55.032Z,22.60
2022-08-17T21:57:17.240Z,25.40
2022-08-17T22:01:17.994Z,20.60
2022-08-17T22:04:51.556Z,24.30
2022-08-17T22:08:24.996Z,24.10
2022-08-17T22:11:54.515Z,24.00
2022-08-17T22:15:06.431Z,23.80
2022-08-17T22:21:15.462Z,23.00
2022-08-17T22:24:14.411Z,22.70
2022-08-17T22:27:31.887Z,22.60
2022-08-17T22:30:45.559Z,22.60
2022-08-17T22:33:47.895Z,22.70
2022-08-17T22:36:29.855Z,22.70
2022-08-17T22:39:01.269Z,22.80
2022-08-17T22:41:54.596Z,22.80
2022-08-17T22:44:33.389Z,22.80
2022-08-17T22:47:11.598Z,22.80
2022-08-17T22:49:53.776Z,22.90
2022-08-17T22:52:35.257Z,22.90
2022-08-17T22:55:30.569Z,22.90
2022-08-17T23:00:51.102Z,21.10
2022-08-17T23:03:31.429Z,22.60
2022-08-17T23:06:05.997Z,22.90
2022-08-17T23:11:06.607Z,22.20
2022-08-17T23:13:34.797Z,21.30
2022-08-17T23:16:05.278Z,22.80
2022-08-17T23:18:41.063Z,22.30
2022-08-17T23:23:41.707Z,27.40
2022-08-17T23:31:13.824Z,20.90
2022-08-17T23:36:17.395Z,21.10
2022-08-17T23:38:47.073Z,22.90
2022-08-17T23:41:18.183Z,26.10
2022-08-17T23:43:50.286Z,22.80
2022-08-17T23:46:24.551Z,22.50
2022-08-17T23:48:53.437Z,21.90
2022-08-17T23:51:24.638Z,22.10
2022-08-17T23:53:56.715Z,22.70
2022-08-17T23:58:55.824Z,22.70
